sensor_id;sensor_type;location;lat;lon;timestamp;pressure;altitude;pressure_sealevel;temperature;humidity
72857;BME280;62742;52.136;4.500;2023-05-25T00:01:02;102730.84;;;11.54;84.02
72857;BME280;62742;52.136;4.500;2023-05-25T00:03:29;102724.72;;;11.53;83.39
72857;BME280;62742;52.136;4.500;2023-05-25T00:05:55;102723.84;;;11.56;83.47
72857;BME280;62742;52.136;4.500;2023-05-25T00:08:22;102734.38;;;11.54;84.27
72857;BME280;62742;52.136;4.500;2023-05-25T00:10:48;102731.72;;;11.53;84.18
72857;BME280;62742;52.136;4.500;2023-05-25T00:13:15;102728.19;;;11.51;83.92
72857;BME280;62742;52.136;4.500;2023-05-25T00:15:41;102729.06;;;11.50;83.35
72857;BME280;62742;52.136;4.500;2023-05-25T00:18:07;102730.88;;;11.55;83.85
72857;BME280;62742;52.136;4.500;2023-05-25T00:20:33;102727.13;;;11.33;84.99
72857;BME280;62742;52.136;4.500;2023-05-25T00:23:00;102728.00;;;11.35;84.44
72857;BME280;62742;52.136;4.500;2023-05-25T00:25:27;102729.88;;;11.46;84.63
72857;BME280;62742;52.136;4.500;2023-05-25T00:27:54;102725.34;;;11.34;85.77
72857;BME280;62742;52.136;4.500;2023-05-25T00:30:20;102738.41;;;11.25;86.50
72857;BME280;62742;52.136;4.500;2023-05-25T00:32:46;102735.88;;;11.34;85.88
72857;BME280;62742;52.136;4.500;2023-05-25T00:35:12;102735.81;;;11.26;85.89
72857;BME280;62742;52.136;4.500;2023-05-25T00:37:39;102728.81;;;11.28;85.72
72857;BME280;62742;52.136;4.500;2023-05-25T00:40:06;102725.34;;;11.31;85.49
72857;BME280;62742;52.136;4.500;2023-05-25T00:42:37;102741.13;;;11.29;85.41
72857;BME280;62742;52.136;4.500;2023-05-25T00:45:03;102735.72;;;11.20;85.23
72857;BME280;62742;52.136;4.500;2023-05-25T00:47:30;102735.78;;;11.25;85.74
72857;BME280;62742;52.136;4.500;2023-05-25T00:49:58;102738.44;;;11.26;85.50
72857;BME280;62742;52.136;4.500;2023-05-25T00:52:26;102740.09;;;11.18;85.89
72857;BME280;62742;52.136;4.500;2023-05-25T00:54:53;102739.03;;;11.02;85.11
72857;BME280;62742;52.136;4.500;2023-05-25T00:57:23;102743.34;;;10.98;85.44
72857;BME280;62742;52.136;4.500;2023-05-25T00:59:53;102744.28;;;11.02;85.66
72857;BME280;62742;52.136;4.500;2023-05-25T01:02:22;102746.19;;;11.15;85.10
72857;BME280;62742;52.136;4.500;2023-05-25T01:04:51;102746.94;;;11.05;85.04
72857;BME280;62742;52.136;4.500;2023-05-25T01:07:20;102753.19;;;11.15;84.24
72857;BME280;62742;52.136;4.500;2023-05-25T01:09:49;102749.50;;;11.00;84.20
72857;BME280;62742;52.136;4.500;2023-05-25T01:12:19;102752.91;;;10.95;85.97
72857;BME280;62742;52.136;4.500;2023-05-25T01:14:47;102750.19;;;10.87;86.52
72857;BME280;62742;52.136;4.500;2023-05-25T01:17:14;102754.41;;;10.76;85.67
72857;BME280;62742;52.136;4.500;2023-05-25T01:19:42;102757.97;;;10.79;85.15
72857;BME280;62742;52.136;4.500;2023-05-25T01:24:58;102766.75;;;10.78;86.02
72857;BME280;62742;52.136;4.500;2023-05-25T01:30:09;102765.19;;;10.93;84.87
72857;BME280;62742;52.136;4.500;2023-05-25T01:32:39;102763.09;;;10.70;85.44
72857;BME280;62742;52.136;4.500;2023-05-25T01:35:07;102760.31;;;10.59;85.49
72857;BME280;62742;52.136;4.500;2023-05-25T01:37:35;102758.03;;;10.82;85.23
72857;BME280;62742;52.136;4.500;2023-05-25T01:40:05;102759.50;;;10.63;85.60
72857;BME280;62742;52.136;4.500;2023-05-25T01:42:31;102764.69;;;10.60;85.91
72857;BME280;62742;52.136;4.500;2023-05-25T01:44:58;102760.31;;;10.59;86.30
72857;BME280;62742;52.136;4.500;2023-05-25T01:47:28;102765.53;;;10.56;86.66
72857;BME280;62742;52.136;4.500;2023-05-25T01:50:09;102767.16;;;10.50;86.98
72857;BME280;62742;52.136;4.500;2023-05-25T01:53:33;102771.59;;;10.51;86.83
72857;BME280;62742;52.136;4.500;2023-05-25T01:55:45;102770.63;;;10.47;86.85
72857;BME280;62742;52.136;4.500;2023-05-25T01:58:18;102776.03;;;10.56;86.66
72857;BME280;62742;52.136;4.500;2023-05-25T02:00:45;102774.69;;;10.84;86.05
72857;BME280;62742;52.136;4.500;2023-05-25T02:03:14;102775.09;;;11.11;85.45
72857;BME280;62742;52.136;4.500;2023-05-25T02:05:40;102775.44;;;10.73;86.00
72857;BME280;62742;52.136;4.500;2023-05-25T02:08:06;102773.25;;;10.47;86.47
72857;BME280;62742;52.136;4.500;2023-05-25T02:10:33;102780.19;;;10.43;86.82
72857;BME280;62742;52.136;4.500;2023-05-25T02:12:59;102783.06;;;10.56;87.27
72857;BME280;62742;52.136;4.500;2023-05-25T02:15:30;102774.44;;;10.66;86.40
72857;BME280;62742;52.136;4.500;2023-05-25T02:17:58;102776.88;;;10.52;87.38
72857;BME280;62742;52.136;4.500;2023-05-25T02:20:25;102778.66;;;10.56;87.92
72857;BME280;62742;52.136;4.500;2023-05-25T02:22:53;102777.19;;;10.74;86.90
72857;BME280;62742;52.136;4.500;2023-05-25T02:25:19;102782.06;;;10.49;87.24
72857;BME280;62742;52.136;4.500;2023-05-25T02:27:45;102789.00;;;10.47;87.82
72857;BME280;62742;52.136;4.500;2023-05-25T02:30:11;102789.72;;;10.37;89.38
72857;BME280;62742;52.136;4.500;2023-05-25T02:32:38;102789.47;;;10.23;91.72
72857;BME280;62742;52.136;4.500;2023-05-25T02:35:05;102787.03;;;10.32;91.40
72857;BME280;62742;52.136;4.500;2023-05-25T02:37:32;102795.63;;;10.23;90.89
72857;BME280;62742;52.136;4.500;2023-05-25T02:39:58;102796.53;;;10.25;90.58
72857;BME280;62742;52.136;4.500;2023-05-25T02:42:24;102801.78;;;10.25;91.00
72857;BME280;62742;52.136;4.500;2023-05-25T02:44:51;102797.44;;;10.27;89.72
72857;BME280;62742;52.136;4.500;2023-05-25T02:47:17;102795.94;;;10.42;89.86
72857;BME280;62742;52.136;4.500;2023-05-25T02:49:44;102803.81;;;10.42;90.04
72857;BME280;62742;52.136;4.500;2023-05-25T02:52:10;102797.81;;;10.47;89.77
72857;BME280;62742;52.136;4.500;2023-05-25T02:54:36;102800.22;;;10.37;90.19
72857;BME280;62742;52.136;4.500;2023-05-25T02:57:03;102803.81;;;10.42;89.80
72857;BME280;62742;52.136;4.500;2023-05-25T02:59:30;102793.38;;;10.45;90.54
72857;BME280;62742;52.136;4.500;2023-05-25T03:01:59;102803.19;;;10.57;89.51
72857;BME280;62742;52.136;4.500;2023-05-25T03:04:25;102801.72;;;10.73;89.14
72857;BME280;62742;52.136;4.500;2023-05-25T03:06:51;102800.69;;;10.63;89.13
72857;BME280;62742;52.136;4.500;2023-05-25T03:09:17;102799.09;;;10.73;89.72
72857;BME280;62742;52.136;4.500;2023-05-25T03:11:44;102805.06;;;10.64;89.47
72857;BME280;62742;52.136;4.500;2023-05-25T03:14:10;102804.09;;;10.57;89.89
72857;BME280;62742;52.136;4.500;2023-05-25T03:16:36;102804.88;;;10.52;89.41
72857;BME280;62742;52.136;4.500;2023-05-25T03:19:04;102797.13;;;10.59;89.77
72857;BME280;62742;52.136;4.500;2023-05-25T03:21:31;102798.84;;;10.57;89.27
72857;BME280;62742;52.136;4.500;2023-05-25T03:23:57;102795.19;;;10.47;88.59
72857;BME280;62742;52.136;4.500;2023-05-25T03:26:24;102805.56;;;10.41;88.82
72857;BME280;62742;52.136;4.500;2023-05-25T03:28:53;102803.69;;;10.33;87.62
72857;BME280;62742;52.136;4.500;2023-05-25T03:31:19;102807.97;;;10.29;87.44
72857;BME280;62742;52.136;4.500;2023-05-25T03:33:45;102808.75;;;10.23;86.29
72857;BME280;62742;52.136;4.500;2023-05-25T03:36:12;102810.44;;;10.21;86.89
72857;BME280;62742;52.136;4.500;2023-05-25T03:38:44;102811.25;;;10.17;86.36
72857;BME280;62742;52.136;4.500;2023-05-25T03:41:10;102805.09;;;10.15;87.25
72857;BME280;62742;52.136;4.500;2023-05-25T03:43:37;102802.38;;;10.10;87.10
72857;BME280;62742;52.136;4.500;2023-05-25T03:46:03;102813.59;;;10.02;87.57
72857;BME280;62742;52.136;4.500;2023-05-25T03:48:29;102811.78;;;9.98;87.25
72857;BME280;62742;52.136;4.500;2023-05-25T03:50:55;102817.22;;;10.07;88.08
72857;BME280;62742;52.136;4.500;2023-05-25T03:53:21;102818.88;;;10.02;88.32
72857;BME280;62742;52.136;4.500;2023-05-25T03:55:48;102818.69;;;9.92;88.56
72857;BME280;62742;52.136;4.500;2023-05-25T03:58:16;102822.25;;;9.95;88.98
72857;BME280;62742;52.136;4.500;2023-05-25T04:00:43;102818.56;;;9.86;88.38
72857;BME280;62742;52.136;4.500;2023-05-25T04:03:09;102824.81;;;9.93;88.13
72857;BME280;62742;52.136;4.500;2023-05-25T04:05:35;102821.19;;;9.86;87.76
72857;BME280;62742;52.136;4.500;2023-05-25T04:08:03;102819.50;;;9.90;87.99
72857;BME280;62742;52.136;4.500;2023-05-25T04:10:29;102819.47;;;9.88;88.30
72857;BME280;62742;52.136;4.500;2023-05-25T04:12:55;102820.34;;;9.87;88.06
72857;BME280;62742;52.136;4.500;2023-05-25T04:15:22;102826.41;;;9.85;88.84
72857;BME280;62742;52.136;4.500;2023-05-25T04:17:48;102832.53;;;9.85;88.69
72857;BME280;62742;52.136;4.500;2023-05-25T04:20:14;102836.28;;;9.97;88.60
72857;BME280;62742;52.136;4.500;2023-05-25T04:22:40;102837.13;;;9.94;87.44
72857;BME280;62742;52.136;4.500;2023-05-25T04:25:08;102843.41;;;10.04;87.92
72857;BME280;62742;52.136;4.500;2023-05-25T04:27:35;102839.91;;;10.03;87.50
72857;BME280;62742;52.136;4.500;2023-05-25T04:30:02;102841.78;;;10.10;87.11
72857;BME280;62742;52.136;4.500;2023-05-25T04:32:29;102845.56;;;10.26;87.47
72857;BME280;62742;52.136;4.500;2023-05-25T04:34:56;102833.44;;;10.32;87.48
72857;BME280;62742;52.136;4.500;2023-05-25T04:37:24;102842.28;;;10.37;87.79
72857;BME280;62742;52.136;4.500;2023-05-25T04:39:53;102835.41;;;10.45;87.13
72857;BME280;62742;52.136;4.500;2023-05-25T04:42:24;102847.97;;;10.61;89.59
72857;BME280;62742;52.136;4.500;2023-05-25T04:44:51;102851.69;;;10.73;87.92
72857;BME280;62742;52.136;4.500;2023-05-25T04:47:21;102856.44;;;10.97;88.06
72857;BME280;62742;52.136;4.500;2023-05-25T04:49:49;102855.94;;;11.22;88.36
72857;BME280;62742;52.136;4.500;2023-05-25T04:52:15;102848.69;;;11.73;86.07
72857;BME280;62742;52.136;4.500;2023-05-25T04:54:41;102852.91;;;12.35;83.15
72857;BME280;62742;52.136;4.500;2023-05-25T04:57:08;102853.50;;;13.09;79.28
72857;BME280;62742;52.136;4.500;2023-05-25T04:59:34;102851.31;;;14.07;74.13
72857;BME280;62742;52.136;4.500;2023-05-25T05:02:00;102847.84;;;14.45;74.57
72857;BME280;62742;52.136;4.500;2023-05-25T05:04:26;102846.06;;;15.18;72.24
72857;BME280;62742;52.136;4.500;2023-05-25T05:06:52;102858.22;;;15.68;70.36
72857;BME280;62742;52.136;4.500;2023-05-25T05:09:19;102857.09;;;16.24;68.89
72857;BME280;62742;52.136;4.500;2023-05-25T05:11:45;102853.00;;;16.95;65.00
72857;BME280;62742;52.136;4.500;2023-05-25T05:14:12;102850.25;;;17.02;63.95
72857;BME280;62742;52.136;4.500;2023-05-25T05:16:38;102858.97;;;17.17;63.88
72857;BME280;62742;52.136;4.500;2023-05-25T05:19:04;102859.72;;;17.28;63.87
72857;BME280;62742;52.136;4.500;2023-05-25T05:21:30;102862.38;;;17.27;64.03
72857;BME280;62742;52.136;4.500;2023-05-25T05:24:00;102853.34;;;17.43;63.72
72857;BME280;62742;52.136;4.500;2023-05-25T05:26:26;102855.72;;;18.33;60.87
72857;BME280;62742;52.136;4.500;2023-05-25T05:28:52;102858.22;;;18.42;59.74
72857;BME280;62742;52.136;4.500;2023-05-25T05:31:18;102855.63;;;18.91;58.61
72857;BME280;62742;52.136;4.500;2023-05-25T05:33:46;102857.81;;;19.18;58.46
72857;BME280;62742;52.136;4.500;2023-05-25T05:36:12;102853.66;;;19.47;57.04
72857;BME280;62742;52.136;4.500;2023-05-25T05:38:38;102865.34;;;19.85;57.09
72857;BME280;62742;52.136;4.500;2023-05-25T05:41:07;102860.44;;;20.06;56.61
72857;BME280;62742;52.136;4.500;2023-05-25T05:43:39;102867.34;;;19.75;56.46
72857;BME280;62742;52.136;4.500;2023-05-25T05:46:07;102876.66;;;19.06;57.73
72857;BME280;62742;52.136;4.500;2023-05-25T05:48:37;102871.03;;;19.68;56.60
72857;BME280;62742;52.136;4.500;2023-05-25T05:51:04;102883.06;;;19.88;55.34
72857;BME280;62742;52.136;4.500;2023-05-25T05:53:31;102873.75;;;19.65;55.61
72857;BME280;62742;52.136;4.500;2023-05-25T05:55:58;102883.97;;;19.88;54.95
72857;BME280;62742;52.136;4.500;2023-05-25T05:58:25;102886.69;;;19.85;56.02
72857;BME280;62742;52.136;4.500;2023-05-25T06:00:54;102888.16;;;20.37;55.31
72857;BME280;62742;52.136;4.500;2023-05-25T06:03:21;102887.16;;;20.43;54.01
72857;BME280;62742;52.136;4.500;2023-05-25T06:05:48;102890.81;;;19.56;54.60
72857;BME280;62742;52.136;4.500;2023-05-25T06:08:14;102895.06;;;19.67;54.74
72857;BME280;62742;52.136;4.500;2023-05-25T06:10:40;102893.06;;;19.33;55.26
72857;BME280;62742;52.136;4.500;2023-05-25T06:13:07;102892.66;;;19.54;55.79
72857;BME280;62742;52.136;4.500;2023-05-25T06:15:33;102898.75;;;20.03;54.50
72857;BME280;62742;52.136;4.500;2023-05-25T06:18:00;102898.34;;;20.59;53.81
72857;BME280;62742;52.136;4.500;2023-05-25T06:20:29;102901.94;;;19.80;55.42
72857;BME280;62742;52.136;4.500;2023-05-25T06:22:55;102898.72;;;20.05;53.93
72857;BME280;62742;52.136;4.500;2023-05-25T06:25:21;102899.34;;;19.74;54.50
72857;BME280;62742;52.136;4.500;2023-05-25T06:27:48;102900.00;;;18.93;55.10
72857;BME280;62742;52.136;4.500;2023-05-25T06:30:15;102908.44;;;18.67;57.46
72857;BME280;62742;52.136;4.500;2023-05-25T06:32:41;102902.50;;;18.48;57.73
72857;BME280;62742;52.136;4.500;2023-05-25T06:35:08;102904.69;;;17.47;61.18
72857;BME280;62742;52.136;4.500;2023-05-25T06:37:37;102910.34;;;17.14;61.27
72857;BME280;62742;52.136;4.500;2023-05-25T06:40:04;102911.75;;;17.51;62.26
72857;BME280;62742;52.136;4.500;2023-05-25T06:42:34;102908.16;;;17.55;61.18
72857;BME280;62742;52.136;4.500;2023-05-25T06:45:00;102924.63;;;17.02;62.69
72857;BME280;62742;52.136;4.500;2023-05-25T06:47:27;102919.66;;;16.53;64.40
72857;BME280;62742;52.136;4.500;2023-05-25T06:49:53;102917.97;;;16.46;64.57
72857;BME280;62742;52.136;4.500;2023-05-25T06:52:19;102923.97;;;16.74;63.35
72857;BME280;62742;52.136;4.500;2023-05-25T06:54:45;102924.31;;;17.36;65.08
72857;BME280;62742;52.136;4.500;2023-05-25T06:57:11;102913.16;;;17.81;63.93
72857;BME280;62742;52.136;4.500;2023-05-25T06:59:37;102922.03;;;18.47;60.12
72857;BME280;62742;52.136;4.500;2023-05-25T07:02:03;102921.03;;;17.93;60.80
72857;BME280;62742;52.136;4.500;2023-05-25T07:04:30;102928.69;;;18.17;61.64
72857;BME280;62742;52.136;4.500;2023-05-25T07:06:57;102929.44;;;18.26;59.50
72857;BME280;62742;52.136;4.500;2023-05-25T07:09:23;102937.41;;;17.53;59.92
72857;BME280;62742;52.136;4.500;2023-05-25T07:11:50;102936.63;;;17.44;61.36
72857;BME280;62742;52.136;4.500;2023-05-25T07:14:17;102935.59;;;17.58;61.83
72857;BME280;62742;52.136;4.500;2023-05-25T07:16:43;102932.59;;;17.88;59.45
72857;BME280;62742;52.136;4.500;2023-05-25T07:19:12;102947.59;;;17.10;60.56
72857;BME280;62742;52.136;4.500;2023-05-25T07:21:40;102953.22;;;16.63;61.59
72857;BME280;62742;52.136;4.500;2023-05-25T07:24:06;102945.47;;;16.31;63.72
72857;BME280;62742;52.136;4.500;2023-05-25T07:26:33;102944.38;;;16.68;62.30
72857;BME280;62742;52.136;4.500;2023-05-25T07:29:01;102949.34;;;17.09;62.90
72857;BME280;62742;52.136;4.500;2023-05-25T07:31:27;102958.31;;;16.99;61.40
72857;BME280;62742;52.136;4.500;2023-05-25T07:33:53;102965.09;;;17.35;62.64
72857;BME280;62742;52.136;4.500;2023-05-25T07:36:20;102958.00;;;17.34;61.54
72857;BME280;62742;52.136;4.500;2023-05-25T07:38:49;102966.94;;;17.24;61.12
72857;BME280;62742;52.136;4.500;2023-05-25T07:41:15;102956.63;;;16.87;61.20
72857;BME280;62742;52.136;4.500;2023-05-25T07:43:41;102956.81;;;16.56;63.11
72857;BME280;62742;52.136;4.500;2023-05-25T07:46:07;102959.56;;;16.42;63.67
72857;BME280;62742;52.136;4.500;2023-05-25T07:48:34;102962.00;;;16.78;63.31
72857;BME280;62742;52.136;4.500;2023-05-25T07:51:00;102967.75;;;17.34;63.07
72857;BME280;62742;52.136;4.500;2023-05-25T07:53:26;102966.09;;;17.19;62.52
72857;BME280;62742;52.136;4.500;2023-05-25T07:55:52;102963.59;;;17.00;62.85
72857;BME280;62742;52.136;4.500;2023-05-25T07:58:18;102969.94;;;16.81;62.84
72857;BME280;62742;52.136;4.500;2023-05-25T08:00:45;102979.28;;;17.28;64.15
72857;BME280;62742;52.136;4.500;2023-05-25T08:03:11;102982.03;;;17.20;60.81
72857;BME280;62742;52.136;4.500;2023-05-25T08:05:38;102970.63;;;17.06;60.55
72857;BME280;62742;52.136;4.500;2023-05-25T08:08:04;102976.97;;;16.90;62.53
72857;BME280;62742;52.136;4.500;2023-05-25T08:10:31;102981.47;;;16.74;62.58
72857;BME280;62742;52.136;4.500;2023-05-25T08:12:57;102989.34;;;16.94;62.33
72857;BME280;62742;52.136;4.500;2023-05-25T08:15:24;102990.59;;;16.30;62.81
72857;BME280;62742;52.136;4.500;2023-05-25T08:17:51;102981.66;;;16.46;62.52
72857;BME280;62742;52.136;4.500;2023-05-25T08:20:17;102990.44;;;16.57;62.42
72857;BME280;62742;52.136;4.500;2023-05-25T08:22:43;102989.59;;;16.49;61.94
72857;BME280;62742;52.136;4.500;2023-05-25T08:25:10;102993.09;;;16.62;62.67
72857;BME280;62742;52.136;4.500;2023-05-25T08:27:36;102993.09;;;16.56;61.84
72857;BME280;62742;52.136;4.500;2023-05-25T08:30:03;102993.94;;;16.62;63.63
72857;BME280;62742;52.136;4.500;2023-05-25T08:32:32;102999.34;;;16.44;61.79
72857;BME280;62742;52.136;4.500;2023-05-25T08:34:59;102992.34;;;16.31;62.30
72857;BME280;62742;52.136;4.500;2023-05-25T08:37:26;102994.78;;;16.69;60.85
72857;BME280;62742;52.136;4.500;2023-05-25T08:39:53;103000.19;;;16.57;60.03
72857;BME280;62742;52.136;4.500;2023-05-25T08:42:20;103003.72;;;16.57;61.68
72857;BME280;62742;52.136;4.500;2023-05-25T08:44:46;103010.97;;;16.23;62.44
72857;BME280;62742;52.136;4.500;2023-05-25T08:47:12;103009.19;;;16.28;63.25
72857;BME280;62742;52.136;4.500;2023-05-25T08:49:41;103012.63;;;16.41;63.72
72857;BME280;62742;52.136;4.500;2023-05-25T08:52:13;103017.19;;;16.11;63.24
72857;BME280;62742;52.136;4.500;2023-05-25T08:54:42;103007.47;;;16.07;63.63
72857;BME280;62742;52.136;4.500;2023-05-25T09:00:02;103019.81;;;16.19;63.49
72857;BME280;62742;52.136;4.500;2023-05-25T09:02:40;103009.25;;;16.06;63.62
72857;BME280;62742;52.136;4.500;2023-05-25T09:05:12;103011.03;;;15.95;64.88
72857;BME280;62742;52.136;4.500;2023-05-25T09:07:38;103016.38;;;15.83;64.80
72857;BME280;62742;52.136;4.500;2023-05-25T09:10:11;103019.94;;;15.82;65.40
72857;BME280;62742;52.136;4.500;2023-05-25T09:12:39;103014.63;;;15.71;65.42
72857;BME280;62742;52.136;4.500;2023-05-25T09:15:09;103015.50;;;15.81;64.24
72857;BME280;62742;52.136;4.500;2023-05-25T09:17:36;103019.91;;;15.85;65.49
72857;BME280;62742;52.136;4.500;2023-05-25T09:20:03;103018.94;;;16.14;63.24
72857;BME280;62742;52.136;4.500;2023-05-25T09:22:30;103014.38;;;16.48;62.37
72857;BME280;62742;52.136;4.500;2023-05-25T09:24:56;103012.63;;;16.44;61.17
72857;BME280;62742;52.136;4.500;2023-05-25T09:27:23;103014.25;;;16.67;61.05
72857;BME280;62742;52.136;4.500;2023-05-25T09:29:50;103005.50;;;16.57;63.16
72857;BME280;62742;52.136;4.500;2023-05-25T09:32:17;103005.34;;;16.85;60.71
72857;BME280;62742;52.136;4.500;2023-05-25T09:34:44;103009.72;;;16.92;59.83
72857;BME280;62742;52.136;4.500;2023-05-25T09:37:12;103014.09;;;16.94;61.92
72857;BME280;62742;52.136;4.500;2023-05-25T09:39:39;103011.50;;;16.82;58.88
72857;BME280;62742;52.136;4.500;2023-05-25T09:42:07;103007.34;;;16.41;62.45
72857;BME280;62742;52.136;4.500;2023-05-25T09:44:33;103013.38;;;16.71;61.13
72857;BME280;62742;52.136;4.500;2023-05-25T09:47:00;103015.09;;;16.76;61.07
72857;BME280;62742;52.136;4.500;2023-05-25T09:49:27;103012.38;;;16.89;59.19
72857;BME280;62742;52.136;4.500;2023-05-25T09:51:53;103018.56;;;16.89;59.93
72857;BME280;62742;52.136;4.500;2023-05-25T09:54:20;103022.06;;;16.94;58.89
72857;BME280;62742;52.136;4.500;2023-05-25T09:56:51;103022.28;;;16.57;58.83
72857;BME280;62742;52.136;4.500;2023-05-25T09:59:17;103017.84;;;16.66;59.27
72857;BME280;62742;52.136;4.500;2023-05-25T10:01:44;103024.13;;;16.44;59.45
72857;BME280;62742;52.136;4.500;2023-05-25T10:04:17;103023.25;;;16.42;58.93
72857;BME280;62742;52.136;4.500;2023-05-25T10:06:43;103032.13;;;16.37;61.27
72857;BME280;62742;52.136;4.500;2023-05-25T10:09:19;103036.63;;;16.19;62.21
72857;BME280;62742;52.136;4.500;2023-05-25T10:11:47;103036.69;;;16.04;62.85
72857;BME280;62742;52.136;4.500;2023-05-25T10:14:19;103036.69;;;15.92;64.78
72857;BME280;62742;52.136;4.500;2023-05-25T10:16:49;103035.78;;;16.02;65.08
72857;BME280;62742;52.136;4.500;2023-05-25T10:22:03;103032.13;;;16.35;65.66
72857;BME280;62742;52.136;4.500;2023-05-25T10:24:49;103037.47;;;16.29;65.37
72857;BME280;62742;52.136;4.500;2023-05-25T10:27:24;103031.25;;;16.35;65.40
72857;BME280;62742;52.136;4.500;2023-05-25T10:29:57;103032.13;;;16.34;64.57
72857;BME280;62742;52.136;4.500;2023-05-25T10:32:26;103031.09;;;16.66;64.10
72857;BME280;62742;52.136;4.500;2023-05-25T10:34:55;103037.28;;;16.66;62.68
72857;BME280;62742;52.136;4.500;2023-05-25T10:37:24;103030.00;;;17.00;62.86
72857;BME280;62742;52.136;4.500;2023-05-25T10:39:52;103036.66;;;17.52;60.67
72857;BME280;62742;52.136;4.500;2023-05-25T10:42:21;103037.13;;;16.95;60.16
72857;BME280;62742;52.136;4.500;2023-05-25T10:44:48;103034.56;;;16.86;60.95
72857;BME280;62742;52.136;4.500;2023-05-25T10:47:15;103034.47;;;16.94;62.26
72857;BME280;62742;52.136;4.500;2023-05-25T10:52:18;103042.41;;;17.03;60.75
72857;BME280;62742;52.136;4.500;2023-05-25T10:54:45;103037.97;;;17.05;60.89
72857;BME280;62742;52.136;4.500;2023-05-25T10:57:22;103042.50;;;16.88;61.60
72857;BME280;62742;52.136;4.500;2023-05-25T10:59:50;103042.59;;;16.68;61.76
72857;BME280;62742;52.136;4.500;2023-05-25T11:02:20;103046.09;;;16.74;62.10
72857;BME280;62742;52.136;4.500;2023-05-25T11:04:49;103049.56;;;16.89;61.87
72857;BME280;62742;52.136;4.500;2023-05-25T11:07:16;103051.44;;;16.67;62.49
72857;BME280;62742;52.136;4.500;2023-05-25T11:09:54;103048.84;;;16.51;64.17
72857;BME280;62742;52.136;4.500;2023-05-25T11:12:23;103046.28;;;16.36;63.66
72857;BME280;62742;52.136;4.500;2023-05-25T11:15:07;103047.25;;;16.10;64.29
72857;BME280;62742;52.136;4.500;2023-05-25T11:20:26;103050.72;;;16.34;64.78
72857;BME280;62742;52.136;4.500;2023-05-25T11:22:55;103040.97;;;16.33;63.15
72857;BME280;62742;52.136;4.500;2023-05-25T11:25:38;103043.63;;;16.40;63.05
72857;BME280;62742;52.136;4.500;2023-05-25T11:28:07;103038.13;;;16.76;62.65
72857;BME280;62742;52.136;4.500;2023-05-25T11:30:39;103037.44;;;16.35;60.65
72857;BME280;62742;52.136;4.500;2023-05-25T11:33:06;103037.41;;;16.41;63.02
72857;BME280;62742;52.136;4.500;2023-05-25T11:35:33;103029.50;;;16.31;60.76
72857;BME280;62742;52.136;4.500;2023-05-25T11:38:03;103024.09;;;16.51;60.63
72857;BME280;62742;52.136;4.500;2023-05-25T11:40:31;103022.22;;;16.71;61.84
72857;BME280;62742;52.136;4.500;2023-05-25T11:42:58;103023.09;;;16.69;59.83
72857;BME280;62742;52.136;4.500;2023-05-25T11:45:28;103022.03;;;17.00;60.24
72857;BME280;62742;52.136;4.500;2023-05-25T11:47:58;103027.97;;;17.32;59.28
72857;BME280;62742;52.136;4.500;2023-05-25T11:50:24;103025.09;;;17.61;60.27
72857;BME280;62742;52.136;4.500;2023-05-25T11:52:50;103027.84;;;17.47;56.86
72857;BME280;62742;52.136;4.500;2023-05-25T11:55:17;103016.69;;;17.10;56.40
72857;BME280;62742;52.136;4.500;2023-05-25T11:57:43;103024.72;;;16.99;57.53
72857;BME280;62742;52.136;4.500;2023-05-25T12:00:10;103020.41;;;16.78;58.84
72857;BME280;62742;52.136;4.500;2023-05-25T12:02:37;103022.19;;;16.76;58.17
72857;BME280;62742;52.136;4.500;2023-05-25T12:05:04;103020.41;;;16.79;60.04
72857;BME280;62742;52.136;4.500;2023-05-25T12:07:34;103015.72;;;17.20;60.30
72857;BME280;62742;52.136;4.500;2023-05-25T12:10:10;103022.97;;;16.95;58.56
72857;BME280;62742;52.136;4.500;2023-05-25T12:12:41;103027.22;;;17.19;58.21
72857;BME280;62742;52.136;4.500;2023-05-25T12:15:09;103017.44;;;17.23;56.56
72857;BME280;62742;52.136;4.500;2023-05-25T12:17:40;103032.41;;;17.34;55.19
72857;BME280;62742;52.136;4.500;2023-05-25T12:20:09;103024.47;;;17.30;56.52
72857;BME280;62742;52.136;4.500;2023-05-25T12:22:40;103030.69;;;17.27;57.62
72857;BME280;62742;52.136;4.500;2023-05-25T12:25:07;103021.47;;;17.67;56.06
72857;BME280;62742;52.136;4.500;2023-05-25T12:27:35;103023.06;;;17.86;54.84
72857;BME280;62742;52.136;4.500;2023-05-25T12:30:02;103017.66;;;17.94;54.44
72857;BME280;62742;52.136;4.500;2023-05-25T12:32:30;103007.72;;;18.08;54.35
72857;BME280;62742;52.136;4.500;2023-05-25T12:35:03;103012.22;;;18.05;52.64
72857;BME280;62742;52.136;4.500;2023-05-25T12:37:31;103007.38;;;18.36;56.43
72857;BME280;62742;52.136;4.500;2023-05-25T12:39:57;102997.69;;;18.32;54.08
72857;BME280;62742;52.136;4.500;2023-05-25T12:42:24;103004.56;;;18.48;53.19
72857;BME280;62742;52.136;4.500;2023-05-25T12:44:56;103005.97;;;18.09;52.80
72857;BME280;62742;52.136;4.500;2023-05-25T12:47:23;103008.03;;;17.79;54.37
72857;BME280;62742;52.136;4.500;2023-05-25T12:50:13;103007.34;;;17.60;55.12
72857;BME280;62742;52.136;4.500;2023-05-25T12:52:40;103005.81;;;17.37;55.70
72857;BME280;62742;52.136;4.500;2023-05-25T12:58:01;103015.50;;;17.43;58.53
72857;BME280;62742;52.136;4.500;2023-05-25T13:00:34;103011.63;;;17.76;57.80
72857;BME280;62742;52.136;4.500;2023-05-25T13:03:03;103009.78;;;17.83;56.21
72857;BME280;62742;52.136;4.500;2023-05-25T13:05:32;103007.09;;;17.88;54.79
72857;BME280;62742;52.136;4.500;2023-05-25T13:08:01;102999.06;;;17.92;54.46
72857;BME280;62742;52.136;4.500;2023-05-25T13:10:29;102991.66;;;18.18;55.09
72857;BME280;62742;52.136;4.500;2023-05-25T13:12:57;102986.28;;;18.86;53.02